sensor_id;sensor_type;location;lat;lon;timestamp;P1;durP1;ratioP1;P2;durP2;ratioP2
20026;SDS011;10174;42.688;23.344;2023-09-30T00:01:42;20.35;;;7.88;;
20026;SDS011;10174;42.688;23.344;2023-09-30T00:04:08;17.90;;;7.00;;
20026;SDS011;10174;42.688;23.344;2023-09-30T00:06:34;16.67;;;7.90;;
20026;SDS011;10174;42.688;23.344;2023-09-30T00:08:59;16.50;;;7.07;;
20026;SDS011;10174;42.688;23.344;2023-09-30T00:11:25;22.85;;;7.03;;
20026;SDS011;10174;42.688;23.344;2023-09-30T00:13:50;17.42;;;7.20;;
20026;SDS011;10174;42.688;23.344;2023-09-30T00:16:16;14.50;;;7.00;;
20026;SDS011;10174;42.688;23.344;2023-09-30T00:18:44;15.30;;;7.50;;
20026;SDS011;10174;42.688;23.344;2023-09-30T00:21:10;19.38;;;8.05;;
20026;SDS011;10174;42.688;23.344;2023-09-30T00:23:36;14.90;;;7.63;;
20026;SDS011;10174;42.688;23.344;2023-09-30T00:26:01;16.05;;;7.68;;
20026;SDS011;10174;42.688;23.344;2023-09-30T00:28:27;17.63;;;7.55;;
20026;SDS011;10174;42.688;23.344;2023-09-30T00:30:53;14.52;;;7.65;;
20026;SDS011;10174;42.688;23.344;2023-09-30T00:33:18;14.18;;;7.03;;
20026;SDS011;10174;42.688;23.344;2023-09-30T00:35:44;19.20;;;7.47;;
20026;SDS011;10174;42.688;23.344;2023-09-30T00:38:09;17.80;;;7.85;;
20026;SDS011;10174;42.688;23.344;2023-09-30T00:40:35;16.10;;;7.78;;
20026;SDS011;10174;42.688;23.344;2023-09-30T00:43:01;17.88;;;7.43;;
20026;SDS011;10174;42.688;23.344;2023-09-30T00:45:27;22.08;;;8.30;;
20026;SDS011;10174;42.688;23.344;2023-09-30T00:47:53;16.20;;;7.10;;
20026;SDS011;10174;42.688;23.344;2023-09-30T00:50:19;17.88;;;7.82;;
20026;SDS011;10174;42.688;23.344;2023-09-30T00:52:45;15.82;;;7.90;;
20026;SDS011;10174;42.688;23.344;2023-09-30T00:55:13;17.25;;;8.30;;
20026;SDS011;10174;42.688;23.344;2023-09-30T00:57:40;21.45;;;8.25;;
20026;SDS011;10174;42.688;23.344;2023-09-30T01:00:07;18.77;;;8.20;;
20026;SDS011;10174;42.688;23.344;2023-09-30T01:02:37;18.92;;;8.05;;
20026;SDS011;10174;42.688;23.344;2023-09-30T01:05:09;17.33;;;7.20;;
20026;SDS011;10174;42.688;23.344;2023-09-30T01:07:34;17.60;;;7.28;;
20026;SDS011;10174;42.688;23.344;2023-09-30T01:10:01;22.02;;;7.32;;
20026;SDS011;10174;42.688;23.344;2023-09-30T01:12:27;17.95;;;7.68;;
20026;SDS011;10174;42.688;23.344;2023-09-30T01:14:57;17.08;;;7.97;;
20026;SDS011;10174;42.688;23.344;2023-09-30T01:17:24;16.48;;;8.07;;
20026;SDS011;10174;42.688;23.344;2023-09-30T01:19:49;20.45;;;7.97;;
20026;SDS011;10174;42.688;23.344;2023-09-30T01:22:15;20.98;;;7.75;;
20026;SDS011;10174;42.688;23.344;2023-09-30T01:24:41;20.20;;;7.90;;
20026;SDS011;10174;42.688;23.344;2023-09-30T01:27:08;21.08;;;8.02;;
20026;SDS011;10174;42.688;23.344;2023-09-30T01:29:34;19.00;;;7.80;;
20026;SDS011;10174;42.688;23.344;2023-09-30T01:32:00;23.75;;;7.40;;
20026;SDS011;10174;42.688;23.344;2023-09-30T01:34:26;19.60;;;7.60;;
20026;SDS011;10174;42.688;23.344;2023-09-30T01:36:52;21.88;;;8.02;;
20026;SDS011;10174;42.688;23.344;2023-09-30T01:39:18;16.30;;;8.02;;
20026;SDS011;10174;42.688;23.344;2023-09-30T01:41:43;20.00;;;7.72;;
20026;SDS011;10174;42.688;23.344;2023-09-30T01:44:10;20.30;;;7.57;;
20026;SDS011;10174;42.688;23.344;2023-09-30T01:46:36;20.02;;;7.72;;
20026;SDS011;10174;42.688;23.344;2023-09-30T01:49:01;17.00;;;8.25;;
20026;SDS011;10174;42.688;23.344;2023-09-30T01:51:27;19.00;;;7.43;;
20026;SDS011;10174;42.688;23.344;2023-09-30T01:53:53;13.55;;;7.55;;
20026;SDS011;10174;42.688;23.344;2023-09-30T01:56:19;16.38;;;7.57;;
20026;SDS011;10174;42.688;23.344;2023-09-30T01:58:45;18.40;;;7.78;;
20026;SDS011;10174;42.688;23.344;2023-09-30T02:01:10;19.88;;;8.27;;
20026;SDS011;10174;42.688;23.344;2023-09-30T02:03:36;15.25;;;7.63;;
20026;SDS011;10174;42.688;23.344;2023-09-30T02:06:02;16.77;;;7.03;;
20026;SDS011;10174;42.688;23.344;2023-09-30T02:08:28;15.43;;;7.57;;
20026;SDS011;10174;42.688;23.344;2023-09-30T02:10:54;21.95;;;7.65;;
20026;SDS011;10174;42.688;23.344;2023-09-30T02:13:19;16.75;;;7.28;;
20026;SDS011;10174;42.688;23.344;2023-09-30T02:15:45;19.20;;;8.18;;
20026;SDS011;10174;42.688;23.344;2023-09-30T02:18:10;16.02;;;8.15;;
20026;SDS011;10174;42.688;23.344;2023-09-30T02:20:36;20.40;;;7.70;;
20026;SDS011;10174;42.688;23.344;2023-09-30T02:23:10;12.70;;;7.15;;
20026;SDS011;10174;42.688;23.344;2023-09-30T02:25:39;15.75;;;7.32;;
20026;SDS011;10174;42.688;23.344;2023-09-30T02:28:05;18.92;;;7.10;;
20026;SDS011;10174;42.688;23.344;2023-09-30T02:30:31;14.93;;;6.82;;
20026;SDS011;10174;42.688;23.344;2023-09-30T02:32:57;17.30;;;6.63;;
20026;SDS011;10174;42.688;23.344;2023-09-30T02:35:22;21.48;;;7.97;;
20026;SDS011;10174;42.688;23.344;2023-09-30T02:37:48;16.60;;;7.15;;
20026;SDS011;10174;42.688;23.344;2023-09-30T02:40:15;15.05;;;7.55;;
20026;SDS011;10174;42.688;23.344;2023-09-30T02:42:42;15.48;;;6.85;;
20026;SDS011;10174;42.688;23.344;2023-09-30T02:45:08;17.02;;;6.97;;
20026;SDS011;10174;42.688;23.344;2023-09-30T02:47:34;17.27;;;6.90;;
20026;SDS011;10174;42.688;23.344;2023-09-30T02:50:00;11.85;;;6.00;;
20026;SDS011;10174;42.688;23.344;2023-09-30T02:52:26;16.13;;;6.07;;
20026;SDS011;10174;42.688;23.344;2023-09-30T02:54:53;19.95;;;7.97;;
20026;SDS011;10174;42.688;23.344;2023-09-30T02:57:19;15.60;;;6.57;;
20026;SDS011;10174;42.688;23.344;2023-09-30T02:59:44;20.42;;;7.90;;
20026;SDS011;10174;42.688;23.344;2023-09-30T03:02:10;16.65;;;8.27;;
20026;SDS011;10174;42.688;23.344;2023-09-30T03:04:36;18.63;;;8.20;;
20026;SDS011;10174;42.688;23.344;2023-09-30T03:07:02;13.60;;;7.13;;
20026;SDS011;10174;42.688;23.344;2023-09-30T03:09:27;15.52;;;7.90;;
20026;SDS011;10174;42.688;23.344;2023-09-30T03:11:53;22.50;;;8.82;;
20026;SDS011;10174;42.688;23.344;2023-09-30T03:14:21;17.52;;;8.20;;
20026;SDS011;10174;42.688;23.344;2023-09-30T03:16:47;15.27;;;7.30;;
20026;SDS011;10174;42.688;23.344;2023-09-30T03:19:13;15.70;;;7.75;;
20026;SDS011;10174;42.688;23.344;2023-09-30T03:21:41;20.73;;;7.88;;
20026;SDS011;10174;42.688;23.344;2023-09-30T03:24:07;15.50;;;7.53;;
20026;SDS011;10174;42.688;23.344;2023-09-30T03:26:34;14.32;;;7.90;;
20026;SDS011;10174;42.688;23.344;2023-09-30T03:28:59;18.90;;;8.15;;
20026;SDS011;10174;42.688;23.344;2023-09-30T03:31:25;16.05;;;7.90;;
20026;SDS011;10174;42.688;23.344;2023-09-30T03:33:51;21.58;;;8.18;;
20026;SDS011;10174;42.688;23.344;2023-09-30T03:36:20;18.60;;;7.78;;
20026;SDS011;10174;42.688;23.344;2023-09-30T03:38:47;19.20;;;7.80;;
20026;SDS011;10174;42.688;23.344;2023-09-30T03:41:12;15.38;;;8.43;;
20026;SDS011;10174;42.688;23.344;2023-09-30T03:43:38;17.98;;;7.72;;
20026;SDS011;10174;42.688;23.344;2023-09-30T03:46:06;17.95;;;7.50;;
20026;SDS011;10174;42.688;23.344;2023-09-30T03:48:32;20.08;;;8.32;;
20026;SDS011;10174;42.688;23.344;2023-09-30T03:51:13;16.50;;;7.97;;
20026;SDS011;10174;42.688;23.344;2023-09-30T03:53:45;23.70;;;8.30;;
20026;SDS011;10174;42.688;23.344;2023-09-30T03:56:11;15.10;;;7.63;;
20026;SDS011;10174;42.688;23.344;2023-09-30T03:58:40;26.85;;;8.93;;
20026;SDS011;10174;42.688;23.344;2023-09-30T04:01:06;19.75;;;8.77;;
20026;SDS011;10174;42.688;23.344;2023-09-30T04:03:38;19.45;;;8.90;;
20026;SDS011;10174;42.688;23.344;2023-09-30T04:06:04;21.45;;;8.32;;
20026;SDS011;10174;42.688;23.344;2023-09-30T04:08:31;16.25;;;7.45;;
20026;SDS011;10174;42.688;23.344;2023-09-30T04:10:58;16.50;;;8.27;;
20026;SDS011;10174;42.688;23.344;2023-09-30T04:13:25;22.55;;;8.75;;
20026;SDS011;10174;42.688;23.344;2023-09-30T04:15:50;18.48;;;8.35;;
20026;SDS011;10174;42.688;23.344;2023-09-30T04:18:16;24.10;;;8.73;;
20026;SDS011;10174;42.688;23.344;2023-09-30T04:20:41;27.33;;;9.25;;
20026;SDS011;10174;42.688;23.344;2023-09-30T04:23:07;19.83;;;8.52;;
20026;SDS011;10174;42.688;23.344;2023-09-30T04:25:34;23.23;;;9.68;;
20026;SDS011;10174;42.688;23.344;2023-09-30T04:28:00;22.17;;;9.02;;
20026;SDS011;10174;42.688;23.344;2023-09-30T04:30:26;23.30;;;7.90;;
20026;SDS011;10174;42.688;23.344;2023-09-30T04:32:52;16.15;;;8.95;;
20026;SDS011;10174;42.688;23.344;2023-09-30T04:35:18;18.92;;;9.02;;
20026;SDS011;10174;42.688;23.344;2023-09-30T04:37:43;22.52;;;8.32;;
20026;SDS011;10174;42.688;23.344;2023-09-30T04:40:09;21.20;;;7.88;;
20026;SDS011;10174;42.688;23.344;2023-09-30T04:42:44;23.90;;;8.47;;
20026;SDS011;10174;42.688;23.344;2023-09-30T04:45:12;17.05;;;8.55;;
20026;SDS011;10174;42.688;23.344;2023-09-30T04:47:38;25.80;;;8.43;;
20026;SDS011;10174;42.688;23.344;2023-09-30T04:50:05;23.73;;;8.75;;
20026;SDS011;10174;42.688;23.344;2023-09-30T04:52:32;27.30;;;8.35;;
20026;SDS011;10174;42.688;23.344;2023-09-30T04:54:59;16.27;;;7.70;;
20026;SDS011;10174;42.688;23.344;2023-09-30T04:57:25;18.23;;;8.00;;
20026;SDS011;10174;42.688;23.344;2023-09-30T04:59:51;23.10;;;7.22;;
20026;SDS011;10174;42.688;23.344;2023-09-30T05:02:17;18.92;;;8.07;;
20026;SDS011;10174;42.688;23.344;2023-09-30T05:04:42;20.25;;;8.52;;
20026;SDS011;10174;42.688;23.344;2023-09-30T05:07:08;18.38;;;7.68;;
20026;SDS011;10174;42.688;23.344;2023-09-30T05:09:34;25.05;;;8.43;;
20026;SDS011;10174;42.688;23.344;2023-09-30T05:11:59;18.17;;;8.18;;
20026;SDS011;10174;42.688;23.344;2023-09-30T05:14:24;26.80;;;7.82;;
20026;SDS011;10174;42.688;23.344;2023-09-30T05:16:50;22.48;;;8.32;;
20026;SDS011;10174;42.688;23.344;2023-09-30T05:19:15;23.23;;;8.35;;
20026;SDS011;10174;42.688;23.344;2023-09-30T05:21:41;18.95;;;8.52;;
20026;SDS011;10174;42.688;23.344;2023-09-30T05:24:07;20.38;;;8.75;;
20026;SDS011;10174;42.688;23.344;2023-09-30T05:26:33;15.20;;;7.93;;
20026;SDS011;10174;42.688;23.344;2023-09-30T05:28:59;16.13;;;8.05;;
20026;SDS011;10174;42.688;23.344;2023-09-30T05:31:24;16.08;;;7.50;;
20026;SDS011;10174;42.688;23.344;2023-09-30T05:33:50;17.75;;;7.38;;
20026;SDS011;10174;42.688;23.344;2023-09-30T05:36:15;14.35;;;8.10;;
20026;SDS011;10174;42.688;23.344;2023-09-30T05:38:41;17.17;;;7.43;;
20026;SDS011;10174;42.688;23.344;2023-09-30T05:41:07;14.32;;;8.18;;
20026;SDS011;10174;42.688;23.344;2023-09-30T05:43:32;21.02;;;9.10;;
20026;SDS011;10174;42.688;23.344;2023-09-30T05:45:58;20.90;;;7.78;;
20026;SDS011;10174;42.688;23.344;2023-09-30T05:48:23;16.92;;;7.53;;
20026;SDS011;10174;42.688;23.344;2023-09-30T05:50:49;18.23;;;7.82;;
20026;SDS011;10174;42.688;23.344;2023-09-30T05:53:15;15.55;;;7.32;;
20026;SDS011;10174;42.688;23.344;2023-09-30T05:55:41;12.98;;;7.03;;
20026;SDS011;10174;42.688;23.344;2023-09-30T05:58:14;19.58;;;7.63;;
20026;SDS011;10174;42.688;23.344;2023-09-30T06:00:41;20.75;;;7.72;;
20026;SDS011;10174;42.688;23.344;2023-09-30T06:03:07;28.92;;;10.52;;
20026;SDS011;10174;42.688;23.344;2023-09-30T06:05:33;18.35;;;8.23;;
20026;SDS011;10174;42.688;23.344;2023-09-30T06:08:00;21.02;;;8.40;;
20026;SDS011;10174;42.688;23.344;2023-09-30T06:10:28;17.90;;;7.30;;
20026;SDS011;10174;42.688;23.344;2023-09-30T06:12:55;17.92;;;7.75;;
20026;SDS011;10174;42.688;23.344;2023-09-30T06:15:22;17.23;;;7.82;;
20026;SDS011;10174;42.688;23.344;2023-09-30T06:17:54;17.40;;;8.10;;
20026;SDS011;10174;42.688;23.344;2023-09-30T06:20:21;16.08;;;7.65;;
20026;SDS011;10174;42.688;23.344;2023-09-30T06:22:51;19.02;;;7.82;;
20026;SDS011;10174;42.688;23.344;2023-09-30T06:25:18;15.73;;;8.10;;
20026;SDS011;10174;42.688;23.344;2023-09-30T06:27:45;19.77;;;8.32;;
20026;SDS011;10174;42.688;23.344;2023-09-30T06:30:12;17.33;;;8.40;;
20026;SDS011;10174;42.688;23.344;2023-09-30T06:32:41;16.27;;;7.97;;
20026;SDS011;10174;42.688;23.344;2023-09-30T06:35:07;19.52;;;7.93;;
20026;SDS011;10174;42.688;23.344;2023-09-30T06:37:35;21.45;;;6.90;;
20026;SDS011;10174;42.688;23.344;2023-09-30T06:40:03;14.63;;;7.30;;
20026;SDS011;10174;42.688;23.344;2023-09-30T06:42:30;14.73;;;7.65;;
20026;SDS011;10174;42.688;23.344;2023-09-30T06:44:56;19.17;;;7.97;;
20026;SDS011;10174;42.688;23.344;2023-09-30T06:47:22;12.55;;;7.25;;
20026;SDS011;10174;42.688;23.344;2023-09-30T06:49:49;15.63;;;6.93;;
20026;SDS011;10174;42.688;23.344;2023-09-30T06:52:14;15.15;;;6.88;;
20026;SDS011;10174;42.688;23.344;2023-09-30T06:54:40;13.20;;;6.57;;
20026;SDS011;10174;42.688;23.344;2023-09-30T06:57:05;15.15;;;6.68;;
20026;SDS011;10174;42.688;23.344;2023-09-30T06:59:34;17.42;;;6.07;;
20026;SDS011;10174;42.688;23.344;2023-09-30T07:01:59;13.35;;;6.28;;
20026;SDS011;10174;42.688;23.344;2023-09-30T07:04:24;10.57;;;6.28;;
20026;SDS011;10174;42.688;23.344;2023-09-30T07:06:52;12.52;;;5.75;;
20026;SDS011;10174;42.688;23.344;2023-09-30T07:09:18;14.68;;;5.90;;
20026;SDS011;10174;42.688;23.344;2023-09-30T07:11:44;15.00;;;6.68;;
20026;SDS011;10174;42.688;23.344;2023-09-30T07:14:10;19.23;;;6.00;;
20026;SDS011;10174;42.688;23.344;2023-09-30T07:16:36;15.98;;;6.55;;
20026;SDS011;10174;42.688;23.344;2023-09-30T07:19:01;12.20;;;5.72;;
20026;SDS011;10174;42.688;23.344;2023-09-30T07:21:28;11.63;;;5.75;;
20026;SDS011;10174;42.688;23.344;2023-09-30T07:23:53;11.07;;;6.15;;
20026;SDS011;10174;42.688;23.344;2023-09-30T07:26:23;12.32;;;6.18;;
20026;SDS011;10174;42.688;23.344;2023-09-30T07:28:52;19.67;;;6.03;;
20026;SDS011;10174;42.688;23.344;2023-09-30T07:31:19;14.15;;;5.55;;
20026;SDS011;10174;42.688;23.344;2023-09-30T07:33:45;18.40;;;6.18;;
20026;SDS011;10174;42.688;23.344;2023-09-30T07:36:10;18.30;;;5.95;;
20026;SDS011;10174;42.688;23.344;2023-09-30T07:38:38;12.93;;;6.57;;
20026;SDS011;10174;42.688;23.344;2023-09-30T07:41:03;14.05;;;6.38;;
20026;SDS011;10174;42.688;23.344;2023-09-30T07:43:30;17.65;;;5.72;;
20026;SDS011;10174;42.688;23.344;2023-09-30T07:45:55;11.13;;;6.38;;
20026;SDS011;10174;42.688;23.344;2023-09-30T07:48:21;13.75;;;5.72;;
20026;SDS011;10174;42.688;23.344;2023-09-30T07:50:46;16.23;;;6.20;;
20026;SDS011;10174;42.688;23.344;2023-09-30T07:53:12;14.10;;;5.88;;
20026;SDS011;10174;42.688;23.344;2023-09-30T07:55:38;9.10;;;5.20;;
20026;SDS011;10174;42.688;23.344;2023-09-30T07:58:04;13.85;;;5.50;;
20026;SDS011;10174;42.688;23.344;2023-09-30T08:00:30;12.48;;;5.78;;
20026;SDS011;10174;42.688;23.344;2023-09-30T08:02:58;15.93;;;6.05;;
20026;SDS011;10174;42.688;23.344;2023-09-30T08:05:25;11.23;;;5.05;;
20026;SDS011;10174;42.688;23.344;2023-09-30T08:07:51;19.88;;;5.30;;
20026;SDS011;10174;42.688;23.344;2023-09-30T08:10:16;14.68;;;6.10;;
20026;SDS011;10174;42.688;23.344;2023-09-30T08:12:42;8.85;;;5.18;;
20026;SDS011;10174;42.688;23.344;2023-09-30T08:15:11;13.70;;;5.45;;
20026;SDS011;10174;42.688;23.344;2023-09-30T08:17:39;15.30;;;5.78;;
20026;SDS011;10174;42.688;23.344;2023-09-30T08:20:05;14.70;;;4.65;;
20026;SDS011;10174;42.688;23.344;2023-09-30T08:22:32;13.50;;;5.25;;
20026;SDS011;10174;42.688;23.344;2023-09-30T08:24:57;13.90;;;5.32;;
20026;SDS011;10174;42.688;23.344;2023-09-30T08:27:23;19.33;;;5.50;;
20026;SDS011;10174;42.688;23.344;2023-09-30T08:29:51;9.23;;;4.88;;
20026;SDS011;10174;42.688;23.344;2023-09-30T08:32:17;10.70;;;5.20;;
20026;SDS011;10174;42.688;23.344;2023-09-30T08:34:42;9.40;;;4.63;;
20026;SDS011;10174;42.688;23.344;2023-09-30T08:37:08;12.50;;;5.13;;
20026;SDS011;10174;42.688;23.344;2023-09-30T08:39:37;10.75;;;4.85;;
20026;SDS011;10174;42.688;23.344;2023-09-30T08:42:06;10.88;;;4.95;;
20026;SDS011;10174;42.688;23.344;2023-09-30T08:44:36;14.60;;;4.82;;
20026;SDS011;10174;42.688;23.344;2023-09-30T08:47:03;10.07;;;5.45;;
20026;SDS011;10174;42.688;23.344;2023-09-30T08:49:31;15.80;;;5.70;;
20026;SDS011;10174;42.688;23.344;2023-09-30T08:51:59;12.85;;;5.53;;
20026;SDS011;10174;42.688;23.344;2023-09-30T08:54:27;9.57;;;5.38;;
20026;SDS011;10174;42.688;23.344;2023-09-30T08:56:52;11.82;;;5.50;;
20026;SDS011;10174;42.688;23.344;2023-09-30T08:59:18;19.85;;;6.60;;
20026;SDS011;10174;42.688;23.344;2023-09-30T09:01:44;13.25;;;7.03;;
20026;SDS011;10174;42.688;23.344;2023-09-30T09:04:10;13.52;;;7.22;;
20026;SDS011;10174;42.688;23.344;2023-09-30T09:06:36;14.30;;;7.05;;
20026;SDS011;10174;42.688;23.344;2023-09-30T09:09:14;13.70;;;6.95;;
20026;SDS011;10174;42.688;23.344;2023-09-30T09:11:41;17.70;;;7.25;;
20026;SDS011;10174;42.688;23.344;2023-09-30T09:14:07;14.50;;;6.07;;
20026;SDS011;10174;42.688;23.344;2023-09-30T09:16:33;10.10;;;6.15;;
20026;SDS011;10174;42.688;23.344;2023-09-30T09:18:59;16.15;;;6.13;;
20026;SDS011;10174;42.688;23.344;2023-09-30T09:21:25;11.48;;;6.15;;
20026;SDS011;10174;42.688;23.344;2023-09-30T09:23:53;13.77;;;6.80;;
20026;SDS011;10174;42.688;23.344;2023-09-30T09:26:26;11.98;;;6.53;;
20026;SDS011;10174;42.688;23.344;2023-09-30T09:28:56;17.50;;;5.55;;
20026;SDS011;10174;42.688;23.344;2023-09-30T09:31:26;18.58;;;5.68;;
20026;SDS011;10174;42.688;23.344;2023-09-30T09:34:13;9.38;;;5.95;;
20026;SDS011;10174;42.688;23.344;2023-09-30T09:36:40;12.02;;;5.63;;
20026;SDS011;10174;42.688;23.344;2023-09-30T09:39:10;6.55;;;4.88;;
20026;SDS011;10174;42.688;23.344;2023-09-30T09:41:54;8.88;;;5.00;;
20026;SDS011;10174;42.688;23.344;2023-09-30T09:44:22;12.05;;;4.70;;
20026;SDS011;10174;42.688;23.344;2023-09-30T09:46:52;8.93;;;4.43;;
20026;SDS011;10174;42.688;23.344;2023-09-30T09:49:18;8.98;;;4.50;;
20026;SDS011;10174;42.688;23.344;2023-09-30T09:51:45;7.80;;;4.18;;
20026;SDS011;10174;42.688;23.344;2023-09-30T09:54:12;11.77;;;5.80;;
20026;SDS011;10174;42.688;23.344;2023-09-30T09:56:38;11.90;;;4.50;;
20026;SDS011;10174;42.688;23.344;2023-09-30T09:59:04;13.88;;;4.45;;
20026;SDS011;10174;42.688;23.344;2023-09-30T10:01:33;9.38;;;4.00;;
20026;SDS011;10174;42.688;23.344;2023-09-30T10:03:59;5.80;;;3.92;;
20026;SDS011;10174;42.688;23.344;2023-09-30T10:06:26;11.05;;;4.18;;
20026;SDS011;10174;42.688;23.344;2023-09-30T10:08:52;11.13;;;4.07;;
20026;SDS011;10174;42.688;23.344;2023-09-30T10:11:21;19.15;;;5.30;;
20026;SDS011;10174;42.688;23.344;2023-09-30T10:13:57;7.10;;;3.95;;
20026;SDS011;10174;42.688;23.344;2023-09-30T10:19:10;9.25;;;3.50;;
20026;SDS011;10174;42.688;23.344;2023-09-30T10:21:36;8.43;;;3.42;;
20026;SDS011;10174;42.688;23.344;2023-09-30T10:30:06;6.93;;;3.38;;
20026;SDS011;10174;42.688;23.344;2023-09-30T10:35:21;5.20;;;3.03;;
20026;SDS011;10174;42.688;23.344;2023-09-30T10:40:48;10.27;;;3.58;;
20026;SDS011;10174;42.688;23.344;2023-09-30T10:48:51;9.00;;;3.35;;
20026;SDS011;10174;42.688;23.344;2023-09-30T10:51:17;8.23;;;3.58;;
20026;SDS011;10174;42.688;23.344;2023-09-30T10:53:46;8.88;;;3.55;;
20026;SDS011;10174;42.688;23.344;2023-09-30T10:56:22;6.47;;;2.97;;
20026;SDS011;10174;42.688;23.344;2023-09-30T10:58:49;8.52;;;3.35;;
20026;SDS011;10174;42.688;23.344;2023-09-30T11:01:19;5.03;;;3.38;;
20026;SDS011;10174;42.688;23.344;2023-09-30T11:03:46;4.65;;;3.22;;
20026;SDS011;10174;42.688;23.344;2023-09-30T11:06:16;6.78;;;3.55;;
20026;SDS011;10174;42.688;23.344;2023-09-30T11:08:54;6.32;;;2.97;;
20026;SDS011;10174;42.688;23.344;2023-09-30T11:11:38;10.32;;;4.00;;
20026;SDS011;10174;42.688;23.344;2023-09-30T11:16:51;5.88;;;3.70;;
20026;SDS011;10174;42.688;23.344;2023-09-30T11:19:17;6.65;;;3.85;;
20026;SDS011;10174;42.688;23.344;2023-09-30T11:21:46;7.32;;;3.88;;
20026;SDS011;10174;42.688;23.344;2023-09-30T11:24:14;11.13;;;3.53;;
20026;SDS011;10174;42.688;23.344;2023-09-30T11:26:40;9.32;;;3.70;;
20026;SDS011;10174;42.688;23.344;2023-09-30T11:31:41;7.28;;;3.80;;
20026;SDS011;10174;42.688;23.344;2023-09-30T11:34:09;9.23;;;4.22;;
20026;SDS011;10174;42.688;23.344;2023-09-30T11:36:37;16.02;;;4.15;;
20026;SDS011;10174;42.688;23.344;2023-09-30T11:39:04;9.27;;;4.05;;
20026;SDS011;10174;42.688;23.344;2023-09-30T11:41:37;6.72;;;3.90;;
20026;SDS011;10174;42.688;23.344;2023-09-30T11:44:04;14.25;;;3.65;;
20026;SDS011;10174;42.688;23.344;2023-09-30T11:46:33;10.13;;;3.53;;
20026;SDS011;10174;42.688;23.344;2023-09-30T11:49:34;8.40;;;3.55;;
20026;SDS011;10174;42.688;23.344;2023-09-30T11:52:02;7.80;;;3.92;;
20026;SDS011;10174;42.688;23.344;2023-09-30T11:54:29;9.13;;;3.92;;
20026;SDS011;10174;42.688;23.344;2023-09-30T11:57:00;10.50;;;4.40;;
20026;SDS011;10174;42.688;23.344;2023-09-30T11:59:26;13.15;;;4.03;;
20026;SDS011;10174;42.688;23.344;2023-09-30T12:01:51;7.38;;;4.07;;
20026;SDS011;10174;42.688;23.344;2023-09-30T12:04:20;8.45;;;4.03;;
20026;SDS011;10174;42.688;23.344;2023-09-30T12:06:46;6.68;;;3.80;;
20026;SDS011;10174;42.688;23.344;2023-09-30T12:09:13;9.75;;;4.22;;
20026;SDS011;10174;42.688;23.344;2023-09-30T12:11:47;6.90;;;3.72;;
20026;SDS011;10174;42.688;23.344;2023-09-30T12:14:14;4.50;;;3.28;;
20026;SDS011;10174;42.688;23.344;2023-09-30T12:16:40;8.30;;;3.92;;
20026;SDS011;10174;42.688;23.344;2023-09-30T12:19:06;7.70;;;3.65;;
20026;SDS011;10174;42.688;23.344;2023-09-30T12:21:32;9.38;;;3.40;;
20026;SDS011;10174;42.688;23.344;2023-09-30T12:23:59;5.78;;;3.40;;
20026;SDS011;10174;42.688;23.344;2023-09-30T12:26:25;8.52;;;3.53;;
20026;SDS011;10174;42.688;23.344;2023-09-30T12:28:51;8.00;;;3.40;;
20026;SDS011;10174;42.688;23.344;2023-09-30T12:31:16;5.05;;;3.03;;
20026;SDS011;10174;42.688;23.344;2023-09-30T12:33:43;7.32;;;3.70;;
20026;SDS011;10174;42.688;23.344;2023-09-30T12:36:08;9.75;;;3.75;;
20026;SDS011;10174;42.688;23.344;2023-09-30T12:38:34;7.75;;;4.13;;
20026;SDS011;10174;42.688;23.344;2023-09-30T12:41:00;9.35;;;3.75;;
20026;SDS011;10174;42.688;23.344;2023-09-30T12:43:25;22.63;;;5.28;;
20026;SDS011;10174;42.688;23.344;2023-09-30T12:45:51;9.43;;;4.28;;
20026;SDS011;10174;42.688;23.344;2023-09-30T12:48:16;9.63;;;4.25;;
20026;SDS011;10174;42.688;23.344;2023-09-30T12:50:42;13.35;;;4.93;;
20026;SDS011;10174;42.688;23.344;2023-09-30T12:53:08;12.73;;;4.20;;
20026;SDS011;10174;42.688;23.344;2023-09-30T12:55:34;7.18;;;4.50;;
20026;SDS011;10174;42.688;23.344;2023-09-30T12:57:59;8.63;;;4.30;;
20026;SDS011;10174;42.688;23.344;2023-09-30T13:00:25;7.93;;;4.38;;
20026;SDS011;10174;42.688;23.344;2023-09-30T13:02:51;10.52;;;4.13;;
20026;SDS011;10174;42.688;23.344;2023-09-30T13:05:17;10.20;;;4.25;;
20026;SDS011;10174;42.688;23.344;2023-09-30T13:07:43;10.18;;;4.53;;
20026;SDS011;10174;42.688;23.344;2023-09-30T13:10:08;10.70;;;5.05;;
20026;SDS011;10174;42.688;23.344;2023-09-30T13:12:34;8.52;;;4.50;;
20026;SDS011;10174;42.688;23.344;2023-09-30T13:15:00;13.95;;;5.05;;
20026;SDS011;10174;42.688;23.344;2023-09-30T13:17:26;8.13;;;4.63;;
20026;SDS011;10174;42.688;23.344;2023-09-30T13:19:51;6.45;;;4.55;;
20026;SDS011;10174;42.688;23.344;2023-09-30T13:22:17;15.63;;;5.50;;
20026;SDS011;10174;42.688;23.344;2023-09-30T13:24:43;7.28;;;4.38;;
20026;SDS011;10174;42.688;23.344;2023-09-30T13:27:09;8.68;;;4.43;;
20026;SDS011;10174;42.688;23.344;2023-09-30T13:29:34;13.93;;;5.07;;
20026;SDS011;10174;42.688;23.344;2023-09-30T13:32:00;10.25;;;4.55;;
20026;SDS011;10174;42.688;23.344;2023-09-30T13:34:26;12.27;;;4.50;;
20026;SDS011;10174;42.688;23.344;2023-09-30T13:36:52;9.73;;;5.55;;
20026;SDS011;10174;42.688;23.344;2023-09-30T13:39:17;11.57;;;4.93;;
20026;SDS011;10174;42.688;23.344;2023-09-30T13:41:43;10.48;;;4.57;;
20026;SDS011;10174;42.688;23.344;2023-09-30T13:44:09;16.25;;;5.03;;
20026;SDS011;10174;42.688;23.344;2023-09-30T13:46:36;12.07;;;4.68;;
20026;SDS011;10174;42.688;23.344;2023-09-30T13:49:02;8.48;;;4.40;;
20026;SDS011;10174;42.688;23.344;2023-09-30T13:51:28;7.88;;;4.78;;
20026;SDS011;10174;42.688;23.344;2023-09-30T13:53:54;13.77;;;4.75;;
20026;SDS011;10174;42.688;23.344;2023-09-30T13:56:20;8.85;;;4.80;;
20026;SDS011;10174;42.688;23.344;2023-09-30T13:58:45;9.50;;;4.93;;
20026;SDS011;10174;42.688;23.344;2023-09-30T14:01:14;12.45;;;5.03;;
20026;SDS011;10174;42.688;23.344;2023-09-30T14:03:40;10.50;;;5.00;;
20026;SDS011;10174;42.688;23.344;2023-09-30T14:06:09;9.40;;;4.50;;
20026;SDS011;10174;42.688;23.344;2023-09-30T14:08:36;16.60;;;4.78;;
20026;SDS011;10174;42.688;23.344;2023-09-30T14:11:01;9.95;;;4.70;;
20026;SDS011;10174;42.688;23.344;2023-09-30T14:13:27;19.33;;;4.85;;
20026;SDS011;10174;42.688;23.344;2023-09-30T14:15:52;10.18;;;4.03;;
20026;SDS011;10174;42.688;23.344;2023-09-30T14:18:18;8.10;;;4.57;;
20026;SDS011;10174;42.688;23.344;2023-09-30T14:20:43;12.05;;;5.18;;
20026;SDS011;10174;42.688;23.344;2023-09-30T14:23:08;8.13;;;4.20;;
20026;SDS011;10174;42.688;23.344;2023-09-30T14:25:34;9.75;;;4.28;;
20026;SDS011;10174;42.688;23.344;2023-09-30T14:28:00;12.18;;;4.50;;
20026;SDS011;10174;42.688;23.344;2023-09-30T14:30:26;9.57;;;4.68;;
20026;SDS011;10174;42.688;23.344;2023-09-30T14:32:51;13.35;;;4.50;;
20026;SDS011;10174;42.688;23.344;2023-09-30T14:35:17;8.65;;;3.92;;
20026;SDS011;10174;42.688;23.344;2023-09-30T14:37:42;12.57;;;4.15;;
20026;SDS011;10174;42.688;23.344;2023-09-30T14:40:08;13.18;;;4.28;;
20026;SDS011;10174;42.688;23.344;2023-09-30T14:42:38;9.80;;;4.85;;
20026;SDS011;10174;42.688;23.344;2023-09-30T14:45:07;7.72;;;4.45;;
20026;SDS011;10174;42.688;23.344;2023-09-30T14:47:33;12.05;;;5.82;;